Terminal Aerodrome Forecast
Issued by NWS

Home | Current Version | Previous Version | Text Only | Print | Product List | Glossary On
Versions: 1 2 3 4 5 6 7 8 9 10 11 12 13 14 15
000
FTUS45 KVEF 041720
TAFEED
TAF
KEED 041720Z 0418/0518 14014G23KT P6SM BKN100
     FM041900 20010G18KT P6SM SCT080 SCT250
     FM050200 20008KT P6SM SCT080 BKN120=

USA.gov is the U.S. government's official web portal to all federal, state and local government web resources and services.